Latest Weather Observations for Halls Creek

IDW60801

Issued at 1:35 pm WST Thursday 24 April 2014 (issued every 30 minutes, with the page automatically refreshed every 10 minutes)

About weather observations | Map of weather stations | Latest weather observations for WA | Other Formats
Station Details ID: 002012 Name: HALLS CREEK AIRPORT Lat: -18.23 Lon: 127.66 Height: 422.0 m
Data from the previous 72 hours. | See also: Recent months at Halls Creek
Date/Time
WST
Temp
°C
App
Temp
°C
Dew
Point
Rel
Hum
%
Delta-T
°C
Wind Press
QNH
hPa
Press
MSL
hPa
Rain
since 9 am
mm
Dir
 
Spd
km/h
Gust
km/h
Spd
kts
Gust
kts
24/01:30pm 33.1 28.8 1.2 13 16.2 ESE 13 26 7 14 1010.9 - 0.0
24/01:00pm 32.9 29.0 1.1 13 16.1 ESE 11 24 6 13 1011.4 - 0.0
24/12:30pm 33.0 29.7 2.2 14 15.9 ESE 9 20 5 11 1011.7 - 0.0
24/12:00pm 32.7 28.7 3.0 15 15.5 ENE 13 24 7 13 1011.9 1009.2 0.0
24/11:30am 32.5 29.9 4.3 17 15.0 ENE 7 26 4 14 1012.4 - 0.0
24/11:00am 32.7 29.6 5.4 18 14.8 E 11 24 6 13 1013.1 - 0.0
24/10:30am 31.2 27.5 4.6 18 14.1 ESE 13 22 7 12 1013.7 - 0.0
24/10:00am 31.2 28.1 5.6 20 13.8 ESE 11 22 6 12 1014.0 - 0.0
24/09:30am 30.5 26.9 4.9 20 13.6 SE 13 26 7 14 1014.4 - 0.0
24/09:00am 29.1 25.8 4.4 20 12.9 ESE 11 19 6 10 1014.4 1011.7 0.0
24/08:30am 27.9 25.5 5.3 23 11.9 ESE 7 15 4 8 1014.4 - 0.0
24/08:00am 26.7 24.4 5.6 26 11.1 ESE 7 13 4 7 1014.3 - 0.0
24/07:30am 25.2 23.1 5.9 29 10.1 ESE 6 13 3 7 1014.1 - 0.0
24/07:00am 22.7 21.9 8.0 39 7.9 E 2 6 1 3 1013.9 - 0.0
24/06:30am 21.0 20.5 9.2 46 6.4 SE 2 7 1 4 1013.9 - 0.0
24/06:00am 19.0 18.5 7.7 48 5.9 CALM 0 0 0 0 1013.5 1010.7 0.0
24/05:30am 19.0 18.4 7.2 46 6.1 CALM 0 2 0 1 1013.3 - 0.0
24/05:00am 19.2 18.6 7.2 45 6.2 CALM 0 4 0 2 1013.0 - 0.0
24/04:30am 19.4 18.6 6.5 43 6.6 CALM 0 4 0 2 1012.8 - 0.0
24/04:00am 19.1 18.1 7.3 46 6.1 WSW 2 2 1 1 1012.6 - 0.0
24/03:30am 20.4 19.0 5.6 38 7.5 SSW 2 4 1 2 1012.8 - 0.0
24/03:00am 20.0 19.2 6.6 41 6.9 CALM 0 2 0 1 1012.7 1009.9 0.0
24/02:30am 19.8 18.7 7.1 43 6.6 SSE 2 4 1 2 1012.6 - 0.0
24/02:00am 20.8 19.5 5.9 37 7.6 S 2 4 1 2 1012.8 - 0.0
24/01:30am 20.8 19.7 6.7 40 7.3 S 2 4 1 2 1013.0 - 0.0
24/01:00am 20.8 19.5 5.9 37 7.6 SSW 2 4 1 2 1013.1 - 0.0
24/12:30am 21.1 20.0 7.1 40 7.3 ESE 2 2 1 1 1013.4 - 0.0
24/12:00am 21.6 20.5 7.1 39 7.6 E 2 4 1 2 1013.8 1011.1 0.0
 
Date/Time
WST
Temp
°C
App
Temp
°C
Dew
Point
Rel
Hum
%
Delta-T
°C
Wind Press
QNH
hPa
Press
MSL
hPa
Rain
since 9 am
mm
Dir
 
Spd
km/h
Gust
km/h
Spd
kts
Gust
kts
23/11:30pm 22.0 20.9 6.9 37 7.9 E 2 6 1 3 1013.8 - 0.0
23/11:00pm 22.4 20.9 6.7 36 8.2 SE 4 7 2 4 1014.0 - 0.0
23/10:30pm 22.3 20.9 7.1 37 8.0 SE 4 7 2 4 1014.0 - 0.0
23/10:00pm 22.5 21.1 7.1 37 8.1 ESE 4 4 2 2 1014.3 - 0.0
23/09:30pm 22.3 20.6 7.4 38 7.9 SSE 6 7 3 4 1014.2 - 0.0
23/09:00pm 23.5 22.1 7.3 35 8.6 SE 4 6 2 3 1014.3 1011.6 0.0
23/08:30pm 23.6 22.3 7.8 36 8.5 ESE 4 4 2 2 1014.1 - 0.0
23/08:00pm 24.4 23.4 7.2 33 9.2 ENE 2 4 1 2 1013.9 - 0.0
23/07:30pm 24.9 23.7 7.9 33 9.2 SE 4 6 2 3 1013.5 - 0.0
23/07:00pm 25.3 24.0 7.8 32 9.5 SE 4 6 2 3 1013.0 - 0.0
23/06:30pm 25.9 24.5 7.4 30 10.0 SE 4 6 2 3 1012.4 - 0.0
23/06:00pm 26.9 25.0 6.8 28 10.8 SE 6 7 3 4 1012.1 1009.4 0.0
23/05:30pm 28.6 25.9 3.8 20 12.8 SE 7 13 4 7 1011.7 - 0.0
23/05:00pm 30.0 26.8 2.9 17 13.9 ESE 9 15 5 8 1011.3 - 0.0
23/04:30pm 31.3 27.5 1.7 15 15.0 SE 11 19 6 10 1010.9 - 0.0
23/04:00pm 32.1 28.0 2.0 14 15.4 SE 13 24 7 13 1010.7 - 0.0
23/03:30pm 32.7 28.9 1.9 14 15.8 E 11 20 6 11 1010.6 - 0.0
23/03:00pm 32.6 28.1 2.0 14 15.7 E 15 24 8 13 1010.6 1007.8 0.0
23/02:30pm 33.0 29.3 2.6 14 15.8 E 11 22 6 12 1010.8 - 0.0
23/02:00pm 33.2 29.0 1.5 13 16.2 ESE 13 24 7 13 1011.1 - 0.0
23/01:30pm 33.4 29.6 1.9 13 16.2 SE 11 22 6 12 1011.5 - 0.0
23/01:00pm 32.9 28.5 0.3 12 16.3 ESE 13 26 7 14 1011.8 - 0.0
23/12:30pm 33.0 29.1 0.9 13 16.2 ESE 11 30 6 16 1012.6 - 0.0
23/12:00pm 32.6 29.0 0.7 13 16.0 E 9 22 5 12 1013.0 1010.2 0.0
23/11:30am 32.1 27.9 1.5 14 15.5 ESE 13 24 7 13 1013.6 - 0.0
23/11:00am 31.5 26.9 1.3 14 15.2 E 15 26 8 14 1014.0 - 0.0
23/10:30am 31.8 27.7 2.4 15 15.1 ESE 13 30 7 16 1014.4 - 0.0
23/10:00am 31.5 27.4 2.4 15 14.9 ESE 13 22 7 12 1014.7 - 0.0
23/09:30am 30.8 27.1 4.5 19 13.9 ESE 13 20 7 11 1015.2 - 0.0
23/09:00am 29.7 26.6 5.6 21 12.9 ESE 11 19 6 10 1015.4 1012.6 0.0
23/08:30am 28.0 25.8 6.1 25 11.7 ESE 7 13 4 7 1015.4 - 0.0
23/08:00am 26.6 24.7 6.6 28 10.7 ESE 6 9 3 5 1015.4 - 0.0
23/07:30am 24.6 23.5 8.5 36 8.8 ESE 4 9 2 5 1015.3 - 0.0
23/07:00am 23.0 22.2 8.1 38 8.0 E 2 4 1 2 1015.1 - 0.0
23/06:30am 20.5 20.6 10.2 51 5.7 CALM 0 2 0 1 1014.7 - 0.0
23/06:00am 18.5 18.0 7.7 49 5.6 CALM 0 0 0 0 1014.5 1011.8 0.0
23/05:30am 17.6 17.1 8.0 53 5.0 CALM 0 2 0 1 1014.3 - 0.0
23/05:00am 18.1 17.8 8.6 54 5.0 CALM 0 2 0 1 1013.9 - 0.0
23/04:30am 18.7 17.7 7.5 48 5.8 W 2 2 1 1 1013.8 - 0.0
23/04:00am 19.0 18.5 7.7 48 5.9 CALM 0 2 0 1 1013.8 - 0.0
23/03:30am 19.2 18.5 7.0 45 6.3 CALM 0 2 0 1 1013.8 - 0.0
23/03:00am 19.3 18.7 7.6 46 6.1 CALM 0 2 0 1 1013.9 1011.2 0.0
23/02:30am 19.6 19.1 8.0 47 6.1 CALM 0 2 0 1 1013.9 - 0.0
23/02:00am 19.9 19.0 7.7 45 6.4 SE 2 2 1 1 1014.0 - 0.0
23/01:30am 20.3 19.8 7.8 44 6.6 CALM 0 2 0 1 1014.3 - 0.0
23/01:00am 20.8 19.7 7.0 40 7.2 SE 2 2 1 1 1014.4 - 0.0
23/12:30am 20.7 20.1 7.3 42 7.0 CALM 0 2 0 1 1014.6 - 0.0
23/12:00am 21.1 20.6 7.9 42 7.0 CALM 0 4 0 2 1014.5 1011.8 0.0
 
Date/Time
WST
Temp
°C
App
Temp
°C
Dew
Point
Rel
Hum
%
Delta-T
°C
Wind Press
QNH
hPa
Press
MSL
hPa
Rain
since 9 am
mm
Dir
 
Spd
km/h
Gust
km/h
Spd
kts
Gust
kts
22/11:30pm 21.7 20.4 7.5 40 7.5 ESE 4 6 2 3 1014.8 - 0.0
22/11:00pm 22.4 20.8 6.2 35 8.4 E 4 7 2 4 1015.2 - 0.0
22/10:30pm 22.0 21.2 8.2 41 7.4 SE 2 4 1 2 1015.3 - 0.0
22/10:00pm 23.0 21.8 6.3 34 8.7 NE 2 4 1 2 1015.2 - 0.0
22/09:30pm 23.0 21.9 7.1 36 8.4 NNE 2 4 1 2 1015.2 - 0.0
22/09:00pm 23.2 21.9 7.7 37 8.3 E 4 6 2 3 1015.3 1012.5 0.0
22/08:30pm 23.9 22.4 6.6 33 9.1 ESE 4 6 2 3 1015.2 - 0.0
22/08:00pm 24.4 22.8 6.3 31 9.5 SE 4 6 2 3 1014.8 - 0.0
22/07:30pm 23.8 23.0 8.3 37 8.4 SE 2 4 1 2 1014.6 - 0.0
22/07:00pm 24.8 23.7 8.6 35 8.9 SE 4 6 2 3 1014.3 - 0.0
22/06:30pm 25.4 24.0 7.4 31 9.7 SE 4 6 2 3 1014.0 - 0.0
22/06:00pm 26.5 24.9 6.4 27 10.7 SE 4 7 2 4 1013.5 1010.7 0.0
22/05:30pm 28.0 25.7 4.6 22 12.2 SE 6 15 3 8 1013.0 - 0.0
22/05:00pm 29.7 26.2 3.3 18 13.6 SE 11 19 6 10 1012.7 - 0.0
22/04:30pm 30.8 27.8 4.2 18 14.0 SE 9 20 5 11 1012.2 - 0.0
22/04:00pm 31.8 29.0 3.2 16 14.9 SE 7 20 4 11 1012.0 - 0.0
22/03:30pm 32.3 29.1 3.2 16 15.2 SSE 9 19 5 10 1011.8 - 0.0
22/03:00pm 32.8 29.1 2.5 14 15.7 ESE 11 22 6 12 1011.8 1009.1 0.0
22/02:30pm 33.1 30.1 3.9 16 15.5 SSE 9 24 5 13 1011.9 - 0.0
22/02:00pm 32.8 30.5 4.6 17 15.1 SSE 6 13 3 7 1012.1 - 0.0
22/01:30pm 32.7 30.2 4.7 17 15.0 S 7 24 4 13 1012.7 - 0.0
22/01:00pm 33.0 30.4 4.3 16 15.3 S 7 22 4 12 1013.1 - 0.0
22/12:30pm 32.4 30.0 5.4 18 14.6 ESE 7 19 4 10 1013.6 - 0.0
22/12:00pm 32.7 30.5 5.4 18 14.8 ENE 6 24 3 13 1014.1 1011.4 0.0
22/11:30am 31.3 27.6 4.5 18 14.2 ESE 13 22 7 12 1014.8 - 0.0
22/11:00am 31.5 28.3 4.9 18 14.2 E 11 20 6 11 1015.2 - 0.0
22/10:30am 31.0 27.8 5.2 19 13.8 E 11 22 6 12 1015.7 - 0.0
22/10:00am 30.3 27.4 6.7 22 12.9 E 11 19 6 10 1016.2 - 0.0
22/09:30am 30.0 28.0 7.3 24 12.5 E 7 17 4 9 1016.5 - 0.0
22/09:00am 28.9 26.0 6.5 24 12.1 E 11 19 6 10 1016.5 1013.8 0.0
22/08:30am 27.7 25.0 5.8 24 11.6 E 9 17 5 9 1016.4 - 0.0
22/08:00am 25.9 25.0 9.2 34 9.3 E 4 7 2 4 1016.4 - 0.0
22/07:30am 24.2 23.3 9.4 39 8.2 ESE 4 6 2 3 1016.3 - 0.0
22/07:00am 22.4 21.8 9.0 42 7.3 ESE 2 4 1 2 1016.1 - 0.0
22/06:30am 19.6 19.6 11.2 58 4.7 N 2 4 1 2 1016.0 - 0.0
22/06:00am 16.9 16.8 10.7 67 3.4 SSW 2 4 1 2 1015.6 1012.8 0.0
22/05:30am 17.1 17.2 10.3 64 3.7 CALM 0 0 0 0 1015.5 - 0.0
22/05:00am 19.1 18.0 8.3 49 5.7 NNE 4 6 2 3 1015.1 - 0.0
22/04:30am 18.8 17.3 8.6 51 5.4 NNE 6 6 3 3 1014.7 - 0.0
22/04:00am 19.0 18.1 9.3 53 5.2 ENE 4 4 2 2 1014.5 - 0.0
22/03:30am 19.6 18.3 7.8 46 6.2 N 4 4 2 2 1014.4 - 0.0
22/03:00am 20.1 18.7 7.2 43 6.7 N 4 6 2 3 1014.4 1011.7 0.0
22/02:30am 19.0 18.1 9.1 52 5.3 NNW 4 6 2 3 1014.6 - 0.0
22/02:00am 20.0 19.4 8.8 48 6.0 S 2 2 1 1 1014.8 - 0.0
22/01:30am 20.8 19.6 8.0 43 6.8 ESE 4 6 2 3 1014.9 - 0.0
22/01:00am 20.9 20.1 8.1 43 6.8 ESE 2 4 1 2 1015.1 - 0.0
22/12:30am 20.7 20.4 8.6 45 6.5 CALM 0 2 0 1 1015.4 - 0.0
22/12:00am 20.7 20.1 9.0 47 6.3 SSE 2 2 1 1 1015.9 1013.2 0.0
 
Date/Time
WST
Temp
°C
App
Temp
°C
Dew
Point
Rel
Hum
%
Delta-T
°C
Wind Press
QNH
hPa
Press
MSL
hPa
Rain
since 9 am
mm
Dir
 
Spd
km/h
Gust
km/h
Spd
kts
Gust
kts
21/11:30pm 21.3 20.7 9.1 45 6.6 ENE 2 4 1 2 1016.2 - 0.0
21/11:00pm 22.6 21.5 8.3 40 7.7 NNE 4 4 2 2 1016.1 - 0.0
21/10:30pm 22.8 21.8 8.8 40 7.6 NE 4 6 2 3 1016.1 - 0.0
21/10:00pm 22.7 21.5 7.9 38 7.9 N 4 6 2 3 1016.0 - 0.0
21/09:30pm 23.4 22.4 8.7 39 8.0 E 4 6 2 3 1016.0 - 0.0
21/09:00pm 23.4 22.4 8.7 39 8.0 E 4 6 2 3 1015.8 1013.0 0.0
21/08:30pm 23.3 22.5 9.6 41 7.6 SE 4 6 2 3 1015.7 - 0.0
21/08:00pm 23.6 23.3 10.0 42 7.6 SE 2 6 1 3 1015.4 - 0.0
21/07:30pm 24.1 23.4 10.0 41 7.9 S 4 9 2 5 1015.1 - 0.0
21/07:00pm 25.6 24.8 8.2 33 9.5 WNW 2 4 1 2 1014.6 - 0.0
21/06:30pm 26.9 25.3 6.5 27 10.9 NNW 4 4 2 2 1014.2 - 0.0
21/06:00pm 27.6 26.5 6.9 27 11.2 N 2 4 1 2 1013.9 1011.2 0.0
21/05:30pm 27.8 27.4 9.9 32 10.2 N 2 4 1 2 1013.7 - 0.0
21/05:00pm 29.4 28.9 9.3 28 11.4 E 2 4 1 2 1013.6 - 0.0
21/04:30pm 30.6 28.4 5.1 20 13.6 ESE 6 11 3 6 1013.2 - 0.0
21/04:00pm 31.9 30.2 4.1 17 14.7 NNW 2 7 1 4 1013.1 - 0.0
21/03:30pm 31.8 29.2 3.1 16 14.9 E 6 15 3 8 1012.9 - 0.0
21/03:00pm 31.7 28.8 2.6 15 15.0 ESE 7 17 4 9 1012.8 1010.0 0.0
21/02:30pm 32.4 30.3 3.7 16 15.1 N 4 13 2 7 1012.8 - 0.0
21/02:00pm 31.8 28.6 2.8 16 15.0 E 9 15 5 8 1012.9 - 0.0

Other Formats:

Comma delimited format used in spreadsheet applications
http://www.bom.gov.au/fwo/IDW60801/IDW60801.94212.axf

JavaScript Object Notation format (JSON) in row-major order
http://www.bom.gov.au/fwo/IDW60801/IDW60801.94212.json